Airfield :
LOGIN :

Register | Disclaimer

   EN    FR    IT 

 










Legend :    VFR   Marginal VFR   IFR   Intensive IFR   Very Intensive IFR
Visi :
Ceiling :
>= 8 km
>= 3000ft
5 to 8 km
1000 to 3000 ft
1500m to 5 km
500 to 1000 ft
800 to 1500m
200 to 500 ft
< 800m
< 200 ft
Symbols :   Thunderstorms  Fog  Heavy snow  Heavy precipitations  Wind > 20 kt
SIGMETs :     Misc.  Thunderstorms  Icing  Turbulence  Mountain Waves  Volcanic Ashes







- Airport Elevation : 1197 ft
- IATA code : SPM


ETAD - Spangdahlem Ab

CURRENT METAR :
  • 171056Z AUTO 26003KT 9999 CLR 10/00 A3022 RMK AO2 SLP234 T00990000 $

EXPIRED METARs :
  • 170956Z AUTO 00000KT 9999 CLR 09/00 A3022 RMK AO2 SLP233 T00880000 $
  • 170856Z AUTO 00000KT 9999 CLR 08/01 A3022 RMK AO2 SLP234 T00750005 50000 $

TAF TAF ETAD
Valid from the 17 at 11:00 until the 18 at 17:00 UTC


171100Z 1711/1817 VRB06KT 9999 SKC QNH3020INS
BECMG 1804/1805 VRB06KT 9000 BR SKC QNH3013INS
BECMG 1808/1809 19006KT 9999 NSW SKC QNH3007INS TX12/1715Z TNM02/1806Z
No reported NOTAMs for that airfield.



MET'MAP, your aeronautical weather chart ! - Copyright ORBIFLY December 2007 - Disclaimer

ORBIFLY MET'MAP TEAM :

Programming & Development : Alexandra Zaïnal
Concept & Development : Baudouin d'Aumeries
Co-Development & Prog : Marc-Olivier Méhu
Technical & hardware support : Manuel Goepfert

Contact : metmap@orbifly.com




SOURCES & CREDITS :

   NOAA